sensor_id;sensor_type;location;lat;lon;timestamp;temperature;humidity
76759;DHT22;65701;45.588;5.186;2024-03-29T06:55:33;15.72;66.28
76759;DHT22;65701;45.588;5.186;2024-03-29T06:57:58;15.75;66.35
76759;DHT22;65701;45.588;5.186;2024-03-29T07:00:24;15.75;66.48
76759;DHT22;65701;45.588;5.186;2024-03-29T07:02:50;15.79;66.54
76759;DHT22;65701;45.588;5.186;2024-03-29T07:05:16;15.77;66.60
76759;DHT22;65701;45.588;5.186;2024-03-29T07:07:41;15.82;66.78
76759;DHT22;65701;45.588;5.186;2024-03-29T07:10:07;15.83;66.78
76759;DHT22;65701;45.588;5.186;2024-03-29T07:12:33;15.81;66.80
76759;DHT22;65701;45.588;5.186;2024-03-29T07:14:58;15.81;66.86
76759;DHT22;65701;45.588;5.186;2024-03-29T07:17:24;15.88;66.87
76759;DHT22;65701;45.588;5.186;2024-03-29T07:19:50;15.85;66.93
76759;DHT22;65701;45.588;5.186;2024-03-29T07:22:17;15.89;66.94
76759;DHT22;65701;45.588;5.186;2024-03-29T07:24:44;15.89;67.02
76759;DHT22;65701;45.588;5.186;2024-03-29T07:27:10;15.90;66.99
76759;DHT22;65701;45.588;5.186;2024-03-29T07:29:37;15.90;67.05
76759;DHT22;65701;45.588;5.186;2024-03-29T07:32:02;15.96;66.99
76759;DHT22;65701;45.588;5.186;2024-03-29T07:34:28;16.00;66.88
76759;DHT22;65701;45.588;5.186;2024-03-29T07:36:53;16.07;66.78
76759;DHT22;65701;45.588;5.186;2024-03-29T07:39:19;16.13;66.76
76759;DHT22;65701;45.588;5.186;2024-03-29T07:41:46;16.24;66.72
76759;DHT22;65701;45.588;5.186;2024-03-29T07:44:12;16.34;66.63
76759;DHT22;65701;45.588;5.186;2024-03-29T07:46:37;16.44;66.35
76759;DHT22;65701;45.588;5.186;2024-03-29T07:49:06;16.58;66.23
76759;DHT22;65701;45.588;5.186;2024-03-29T07:51:31;16.64;65.86
76759;DHT22;65701;45.588;5.186;2024-03-29T07:53:58;16.69;65.54
76759;DHT22;65701;45.588;5.186;2024-03-29T07:56:28;16.76;65.50
76759;DHT22;65701;45.588;5.186;2024-03-29T07:58:54;16.79;65.33
76759;DHT22;65701;45.588;5.186;2024-03-29T08:01:21;16.80;65.14
76759;DHT22;65701;45.588;5.186;2024-03-29T08:03:47;16.80;64.88
76759;DHT22;65701;45.588;5.186;2024-03-29T08:06:12;16.80;64.79
76759;DHT22;65701;45.588;5.186;2024-03-29T08:08:38;16.82;64.72
76759;DHT22;65701;45.588;5.186;2024-03-29T08:11:03;16.79;64.53
76759;DHT22;65701;45.588;5.186;2024-03-29T08:13:29;16.79;64.45
76759;DHT22;65701;45.588;5.186;2024-03-29T08:15:58;16.79;64.44
76759;DHT22;65701;45.588;5.186;2024-03-29T08:18:25;16.82;64.41
76759;DHT22;65701;45.588;5.186;2024-03-29T08:20:50;16.86;64.35
76759;DHT22;65701;45.588;5.186;2024-03-29T08:23:16;16.92;64.30
76759;DHT22;65701;45.588;5.186;2024-03-29T08:25:41;16.90;64.17
76759;DHT22;65701;45.588;5.186;2024-03-29T08:28:07;16.93;64.07
76759;DHT22;65701;45.588;5.186;2024-03-29T08:30:32;17.00;63.96
76759;DHT22;65701;45.588;5.186;2024-03-29T08:33:03;17.07;64.05
76759;DHT22;65701;45.588;5.186;2024-03-29T08:35:34;17.13;64.06
76759;DHT22;65701;45.588;5.186;2024-03-29T08:38:00;17.20;63.87
76759;DHT22;65701;45.588;5.186;2024-03-29T08:40:28;17.30;63.83
76759;DHT22;65701;45.588;5.186;2024-03-29T08:42:55;17.33;63.83
76759;DHT22;65701;45.588;5.186;2024-03-29T08:45:21;17.37;63.71
76759;DHT22;65701;45.588;5.186;2024-03-29T08:47:46;17.48;63.69
76759;DHT22;65701;45.588;5.186;2024-03-29T08:50:12;17.57;63.50
76759;DHT22;65701;45.588;5.186;2024-03-29T08:52:39;17.58;63.20
76759;DHT22;65701;45.588;5.186;2024-03-29T08:55:08;17.67;63.00
76759;DHT22;65701;45.588;5.186;2024-03-29T08:57:34;17.74;63.03
76759;DHT22;65701;45.588;5.186;2024-03-29T09:00:00;17.77;63.08
76759;DHT22;65701;45.588;5.186;2024-03-29T09:02:26;17.78;62.92
76759;DHT22;65701;45.588;5.186;2024-03-29T09:04:51;17.85;62.86
76759;DHT22;65701;45.588;5.186;2024-03-29T09:07:17;17.92;62.68
76759;DHT22;65701;45.588;5.186;2024-03-29T09:09:43;17.99;62.57
76759;DHT22;65701;45.588;5.186;2024-03-29T09:12:09;18.05;62.45
76759;DHT22;65701;45.588;5.186;2024-03-29T09:14:34;18.12;62.38
76759;DHT22;65701;45.588;5.186;2024-03-29T09:17:00;18.18;62.08
76759;DHT22;65701;45.588;5.186;2024-03-29T09:19:27;18.22;61.79
76759;DHT22;65701;45.588;5.186;2024-03-29T09:21:53;18.26;61.59
76759;DHT22;65701;45.588;5.186;2024-03-29T09:24:18;18.29;61.28
76759;DHT22;65701;45.588;5.186;2024-03-29T09:26:48;18.23;61.14
76759;DHT22;65701;45.588;5.186;2024-03-29T09:29:14;18.27;60.75
76759;DHT22;65701;45.588;5.186;2024-03-29T09:31:41;18.20;60.56
76759;DHT22;65701;45.588;5.186;2024-03-29T09:34:06;18.18;60.28
76759;DHT22;65701;45.588;5.186;2024-03-29T09:36:32;18.17;60.04
76759;DHT22;65701;45.588;5.186;2024-03-29T09:38:57;18.14;59.88
76759;DHT22;65701;45.588;5.186;2024-03-29T09:41:25;18.18;59.85
76759;DHT22;65701;45.588;5.186;2024-03-29T09:43:52;18.20;59.97
76759;DHT22;65701;45.588;5.186;2024-03-29T09:46:20;18.18;59.51
76759;DHT22;65701;45.588;5.186;2024-03-29T09:48:47;18.23;59.37
76759;DHT22;65701;45.588;5.186;2024-03-29T09:51:14;18.26;59.40
76759;DHT22;65701;45.588;5.186;2024-03-29T09:53:42;18.24;59.02
76759;DHT22;65701;45.588;5.186;2024-03-29T09:56:08;18.22;58.21
76759;DHT22;65701;45.588;5.186;2024-03-29T09:58:35;18.23;57.39
76759;DHT22;65701;45.588;5.186;2024-03-29T10:01:04;18.24;57.17
76759;DHT22;65701;45.588;5.186;2024-03-29T10:03:33;18.27;56.59
76759;DHT22;65701;45.588;5.186;2024-03-29T10:06:00;18.23;56.18
76759;DHT22;65701;45.588;5.186;2024-03-29T10:08:26;18.23;55.71
76759;DHT22;65701;45.588;5.186;2024-03-29T10:10:54;18.27;55.43
76759;DHT22;65701;45.588;5.186;2024-03-29T10:13:19;18.26;55.40
76759;DHT22;65701;45.588;5.186;2024-03-29T10:15:46;18.23;55.55
76759;DHT22;65701;45.588;5.186;2024-03-29T10:18:15;18.30;55.58
76759;DHT22;65701;45.588;5.186;2024-03-29T10:20:41;18.27;55.36
76759;DHT22;65701;45.588;5.186;2024-03-29T10:23:07;18.30;55.48
76759;DHT22;65701;45.588;5.186;2024-03-29T10:25:33;18.13;55.04
76759;DHT22;65701;45.588;5.186;2024-03-29T10:28:00;18.17;54.43
76759;DHT22;65701;45.588;5.186;2024-03-29T10:30:28;18.24;54.64
76759;DHT22;65701;45.588;5.186;2024-03-29T10:32:57;18.29;54.59
76759;DHT22;65701;45.588;5.186;2024-03-29T10:35:24;18.27;54.45
76759;DHT22;65701;45.588;5.186;2024-03-29T10:37:54;18.29;54.44
76759;DHT22;65701;45.588;5.186;2024-03-29T10:40:21;18.36;54.55
76759;DHT22;65701;45.588;5.186;2024-03-29T10:42:49;18.38;54.72
76759;DHT22;65701;45.588;5.186;2024-03-29T10:45:15;18.38;54.66
76759;DHT22;65701;45.588;5.186;2024-03-29T10:47:43;18.37;54.44
76759;DHT22;65701;45.588;5.186;2024-03-29T10:50:13;18.40;54.33
76759;DHT22;65701;45.588;5.186;2024-03-29T10:52:41;18.37;54.33
76759;DHT22;65701;45.588;5.186;2024-03-29T10:55:09;18.40;54.31
76759;DHT22;65701;45.588;5.186;2024-03-29T10:57:41;18.41;54.30
76759;DHT22;65701;45.588;5.186;2024-03-29T11:00:15;18.43;54.38
76759;DHT22;65701;45.588;5.186;2024-03-29T11:05:21;18.45;54.11
76759;DHT22;65701;45.588;5.186;2024-03-29T11:07:50;18.45;54.00
76759;DHT22;65701;45.588;5.186;2024-03-29T11:10:25;18.51;53.91
76759;DHT22;65701;45.588;5.186;2024-03-29T11:13:25;18.57;54.24
76759;DHT22;65701;45.588;5.186;2024-03-29T11:16:04;18.64;54.25
76759;DHT22;65701;45.588;5.186;2024-03-29T11:18:31;18.65;54.19
76759;DHT22;65701;45.588;5.186;2024-03-29T11:20:58;18.71;54.08
76759;DHT22;65701;45.588;5.186;2024-03-29T11:23:26;18.81;54.23
76759;DHT22;65701;45.588;5.186;2024-03-29T11:25:54;18.91;54.42
76759;DHT22;65701;45.588;5.186;2024-03-29T11:28:25;18.98;54.74
76759;DHT22;65701;45.588;5.186;2024-03-29T11:30:52;19.07;54.39
76759;DHT22;65701;45.588;5.186;2024-03-29T11:33:44;19.27;54.48
76759;DHT22;65701;45.588;5.186;2024-03-29T11:36:13;19.40;54.72
76759;DHT22;65701;45.588;5.186;2024-03-29T11:38:39;19.57;54.74
76759;DHT22;65701;45.588;5.186;2024-03-29T11:41:13;19.74;54.80
76759;DHT22;65701;45.588;5.186;2024-03-29T11:43:39;19.83;54.46
76759;DHT22;65701;45.588;5.186;2024-03-29T11:46:13;19.92;54.00
76759;DHT22;65701;45.588;5.186;2024-03-29T11:48:39;19.96;53.48
76759;DHT22;65701;45.588;5.186;2024-03-29T11:51:06;19.95;53.20
76759;DHT22;65701;45.588;5.186;2024-03-29T11:53:33;19.96;52.66
76759;DHT22;65701;45.588;5.186;2024-03-29T11:56:00;20.04;52.68
76759;DHT22;65701;45.588;5.186;2024-03-29T11:58:30;20.02;52.55
76759;DHT22;65701;45.588;5.186;2024-03-29T12:00:57;20.02;52.23
76759;DHT22;65701;45.588;5.186;2024-03-29T12:03:25;19.95;52.18
76759;DHT22;65701;45.588;5.186;2024-03-29T12:05:52;20.04;52.04
76759;DHT22;65701;45.588;5.186;2024-03-29T12:08:20;20.02;52.03
76759;DHT22;65701;45.588;5.186;2024-03-29T12:10:46;19.99;51.87
76759;DHT22;65701;45.588;5.186;2024-03-29T12:13:15;20.06;51.88
76759;DHT22;65701;45.588;5.186;2024-03-29T12:15:41;20.06;52.07
76759;DHT22;65701;45.588;5.186;2024-03-29T12:18:06;20.09;52.26
76759;DHT22;65701;45.588;5.186;2024-03-29T12:20:33;20.12;52.09
76759;DHT22;65701;45.588;5.186;2024-03-29T12:23:03;20.08;52.09
76759;DHT22;65701;45.588;5.186;2024-03-29T12:25:30;20.08;52.08
76759;DHT22;65701;45.588;5.186;2024-03-29T12:27:57;20.15;51.94
76759;DHT22;65701;45.588;5.186;2024-03-29T12:30:24;20.15;52.04
76759;DHT22;65701;45.588;5.186;2024-03-29T12:33:06;20.19;52.20
76759;DHT22;65701;45.588;5.186;2024-03-29T13:30:33;20.81;49.65
76759;DHT22;65701;45.588;5.186;2024-03-29T13:33:27;20.85;49.51
76759;DHT22;65701;45.588;5.186;2024-03-29T13:42:58;20.78;49.25
76759;DHT22;65701;45.588;5.186;2024-03-29T13:45:24;20.78;48.88
76759;DHT22;65701;45.588;5.186;2024-03-29T13:47:52;20.84;49.03
76759;DHT22;65701;45.588;5.186;2024-03-29T13:50:19;20.87;49.17
76759;DHT22;65701;45.588;5.186;2024-03-29T13:52:46;20.88;48.97
76759;DHT22;65701;45.588;5.186;2024-03-29T13:55:13;20.92;48.89
76759;DHT22;65701;45.588;5.186;2024-03-29T13:57:41;20.99;48.96
76759;DHT22;65701;45.588;5.186;2024-03-29T14:00:13;20.96;48.73
76759;DHT22;65701;45.588;5.186;2024-03-29T14:02:43;20.96;48.21
76759;DHT22;65701;45.588;5.186;2024-03-29T14:05:09;21.02;47.81
76759;DHT22;65701;45.588;5.186;2024-03-29T14:07:35;21.03;47.73
76759;DHT22;65701;45.588;5.186;2024-03-29T14:10:00;20.99;47.62
76759;DHT22;65701;45.588;5.186;2024-03-29T14:12:29;21.03;47.55
76759;DHT22;65701;45.588;5.186;2024-03-29T14:14:54;21.03;47.33
76759;DHT22;65701;45.588;5.186;2024-03-29T14:17:24;21.06;47.38
76759;DHT22;65701;45.588;5.186;2024-03-29T14:20:18;21.02;47.48
76759;DHT22;65701;45.588;5.186;2024-03-29T14:29:02;20.96;47.82
76759;DHT22;65701;45.588;5.186;2024-03-29T14:31:38;20.94;47.88
76759;DHT22;65701;45.588;5.186;2024-03-29T14:34:06;20.96;48.01
76759;DHT22;65701;45.588;5.186;2024-03-29T14:36:37;20.92;48.13
76759;DHT22;65701;45.588;5.186;2024-03-29T14:39:02;20.89;48.25
76759;DHT22;65701;45.588;5.186;2024-03-29T14:41:28;20.87;48.56
76759;DHT22;65701;45.588;5.186;2024-03-29T14:43:54;20.82;48.34
76759;DHT22;65701;45.588;5.186;2024-03-29T14:46:33;20.81;48.45
76759;DHT22;65701;45.588;5.186;2024-03-29T14:49:07;20.65;48.83
76759;DHT22;65701;45.588;5.186;2024-03-29T14:51:36;20.70;49.20
76759;DHT22;65701;45.588;5.186;2024-03-29T14:54:02;20.67;49.28
76759;DHT22;65701;45.588;5.186;2024-03-29T14:56:32;20.53;49.34
76759;DHT22;65701;45.588;5.186;2024-03-29T14:59:03;20.57;49.46
76759;DHT22;65701;45.588;5.186;2024-03-29T15:01:35;20.48;49.55
76759;DHT22;65701;45.588;5.186;2024-03-29T15:04:01;20.48;49.71
76759;DHT22;65701;45.588;5.186;2024-03-29T15:06:26;20.36;49.72
76759;DHT22;65701;45.588;5.186;2024-03-29T15:08:53;20.30;49.73
76759;DHT22;65701;45.588;5.186;2024-03-29T15:11:19;20.36;49.76
76759;DHT22;65701;45.588;5.186;2024-03-29T15:13:45;20.33;49.75
76759;DHT22;65701;45.588;5.186;2024-03-29T15:16:11;20.26;49.86
76759;DHT22;65701;45.588;5.186;2024-03-29T15:18:36;20.30;50.05
76759;DHT22;65701;45.588;5.186;2024-03-29T15:21:03;20.15;49.97
76759;DHT22;65701;45.588;5.186;2024-03-29T15:23:30;20.19;49.92
76759;DHT22;65701;45.588;5.186;2024-03-29T15:25:57;20.09;49.89
76759;DHT22;65701;45.588;5.186;2024-03-29T15:28:27;20.10;49.84
76759;DHT22;65701;45.588;5.186;2024-03-29T15:31:15;20.09;49.96
76759;DHT22;65701;45.588;5.186;2024-03-29T15:33:42;20.12;50.16
76759;DHT22;65701;45.588;5.186;2024-03-29T15:36:08;19.99;50.17
76759;DHT22;65701;45.588;5.186;2024-03-29T15:38:35;20.08;50.14
76759;DHT22;65701;45.588;5.186;2024-03-29T15:41:00;20.06;50.33
76759;DHT22;65701;45.588;5.186;2024-03-29T15:43:27;20.05;50.35
76759;DHT22;65701;45.588;5.186;2024-03-29T15:45:54;19.93;50.34
76759;DHT22;65701;45.588;5.186;2024-03-29T15:48:20;19.95;50.10
76759;DHT22;65701;45.588;5.186;2024-03-29T15:50:46;19.99;50.23
76759;DHT22;65701;45.588;5.186;2024-03-29T15:53:13;19.88;50.28
76759;DHT22;65701;45.588;5.186;2024-03-29T15:55:38;19.89;50.21
76759;DHT22;65701;45.588;5.186;2024-03-29T15:58:04;19.95;50.00
76759;DHT22;65701;45.588;5.186;2024-03-29T16:00:29;19.96;50.11
76759;DHT22;65701;45.588;5.186;2024-03-29T16:02:57;20.00;50.18
76759;DHT22;65701;45.588;5.186;2024-03-29T16:05:30;19.96;50.20
76759;DHT22;65701;45.588;5.186;2024-03-29T16:08:31;19.89;50.02
76759;DHT22;65701;45.588;5.186;2024-03-29T16:14:27;19.89;49.23
76759;DHT22;65701;45.588;5.186;2024-03-29T16:17:04;19.98;49.10
76759;DHT22;65701;45.588;5.186;2024-03-29T16:19:32;19.99;49.19
76759;DHT22;65701;45.588;5.186;2024-03-29T16:21:57;19.95;49.19
76759;DHT22;65701;45.588;5.186;2024-03-29T16:24:23;19.82;48.97
76759;DHT22;65701;45.588;5.186;2024-03-29T16:26:48;19.75;48.63
76759;DHT22;65701;45.588;5.186;2024-03-29T16:29:17;19.70;48.43
76759;DHT22;65701;45.588;5.186;2024-03-29T16:31:58;19.70;48.30
76759;DHT22;65701;45.588;5.186;2024-03-29T16:34:35;19.77;48.43
76759;DHT22;65701;45.588;5.186;2024-03-29T16:37:04;19.75;48.45
76759;DHT22;65701;45.588;5.186;2024-03-29T16:39:30;19.64;48.42
76759;DHT22;65701;45.588;5.186;2024-03-29T16:41:55;19.61;48.39
76759;DHT22;65701;45.588;5.186;2024-03-29T16:44:23;19.67;48.46
76759;DHT22;65701;45.588;5.186;2024-03-29T16:46:51;19.55;48.44
76759;DHT22;65701;45.588;5.186;2024-03-29T16:49:17;19.61;48.64
76759;DHT22;65701;45.588;5.186;2024-03-29T16:51:43;19.55;48.81
76759;DHT22;65701;45.588;5.186;2024-03-29T16:54:09;19.43;48.76
76759;DHT22;65701;45.588;5.186;2024-03-29T16:56:35;19.47;48.96
76759;DHT22;65701;45.588;5.186;2024-03-29T16:59:00;19.37;49.26
76759;DHT22;65701;45.588;5.186;2024-03-29T17:01:28;19.27;49.37
76759;DHT22;65701;45.588;5.186;2024-03-29T17:03:54;19.19;49.37
76759;DHT22;65701;45.588;5.186;2024-03-29T17:06:20;19.26;49.65
76759;DHT22;65701;45.588;5.186;2024-03-29T17:08:45;19.13;49.79
76759;DHT22;65701;45.588;5.186;2024-03-29T17:11:13;19.13;49.98
76759;DHT22;65701;45.588;5.186;2024-03-29T17:13:39;19.16;50.08
76759;DHT22;65701;45.588;5.186;2024-03-29T17:16:04;19.13;50.22
76759;DHT22;65701;45.588;5.186;2024-03-29T17:18:30;18.98;50.25
76759;DHT22;65701;45.588;5.186;2024-03-29T17:20:55;19.03;50.35
76759;DHT22;65701;45.588;5.186;2024-03-29T17:23:21;19.05;50.42
76759;DHT22;65701;45.588;5.186;2024-03-29T17:25:52;18.99;50.57
76759;DHT22;65701;45.588;5.186;2024-03-29T17:28:17;18.98;50.56
76759;DHT22;65701;45.588;5.186;2024-03-29T17:30:43;18.92;50.55
76759;DHT22;65701;45.588;5.186;2024-03-29T17:33:08;18.95;50.64
76759;DHT22;65701;45.588;5.186;2024-03-29T17:35:35;18.88;50.65
76759;DHT22;65701;45.588;5.186;2024-03-29T17:38:02;18.89;50.66
76759;DHT22;65701;45.588;5.186;2024-03-29T17:40:28;18.79;50.63
76759;DHT22;65701;45.588;5.186;2024-03-29T17:42:55;18.79;50.71
76759;DHT22;65701;45.588;5.186;2024-03-29T17:45:21;18.79;50.75
76759;DHT22;65701;45.588;5.186;2024-03-29T17:47:46;18.73;50.76
76759;DHT22;65701;45.588;5.186;2024-03-29T17:50:12;18.69;50.77
76759;DHT22;65701;45.588;5.186;2024-03-29T17:52:38;18.64;50.92
76759;DHT22;65701;45.588;5.186;2024-03-29T17:55:04;18.65;51.01
76759;DHT22;65701;45.588;5.186;2024-03-29T17:57:29;18.60;50.99
76759;DHT22;65701;45.588;5.186;2024-03-29T17:59:55;18.58;50.98
76759;DHT22;65701;45.588;5.186;2024-03-29T18:02:20;18.55;50.90
76759;DHT22;65701;45.588;5.186;2024-03-29T18:04:46;18.57;50.93
76759;DHT22;65701;45.588;5.186;2024-03-29T18:07:12;18.55;50.88
